Ana Sayfa
METAR-TAF:

METAR-TAF

Havaalanları :

Hutchinson County Airport

Borger, Teksas, Amerika Birleşik Devletleri

Enlem: 35-41-42N, Boylam: 101-23-42W, yükseklik: 931 m

Güncel hava durumu gözlemi

Rapor saat 16:51 UTC de 16 dakika önce yapıldı.
Rüzgar kuzey/kuzeydoğudan 4 kt
Sıcaklık 9°C
Nem 40%
Basınç 1019 hPa
Görüş mesafesi: 16.1 km
Açık gökyüzü

METAR: KBGD 041651Z AUTO 02004KT 10SM CLR 09/M04 A3010 RMK AO2 SLP191 T00941044

Saat: 12:07 (17:07 UTC)


TAF: eksik

4.000'den fazla havaalanı için hava durumu gözlemleri ve tahminleri (METAR ve TAF raporları).

Kullanılabilir istasyonlar harita üzerinde sarı ve kırmızı noktalarla gösterilir.

İstasyonun adını görmek için fareyi noktanın üzerinde gezdirin.

Sonrasında hava gözlem ve tahminlerini görmek için tıklayın.

Haritayı değiştirmek için: yaklaştırmak için siyah artı işaretli yeşil düğmeye ve uzaklaştırmak için de eksi işaretli düğmeye hızla tıklayın; bitişik haritalar için yeşil okları kullanın.


METAR-TAF: